sensor_id;sensor_type;location;lat;lon;timestamp;pressure;altitude;pressure_sealevel;temperature;humidity
26376;BME280;30544;42.196;24.336;2023-10-08T00:01:04;99412.22;;;18.38;40.93
26376;BME280;30544;42.196;24.336;2023-10-08T00:03:32;99418.34;;;18.40;41.12
26376;BME280;30544;42.196;24.336;2023-10-08T00:06:02;99411.06;;;18.39;41.42
26376;BME280;30544;42.196;24.336;2023-10-08T00:08:32;99410.28;;;18.33;41.21
26376;BME280;30544;42.196;24.336;2023-10-08T00:10:59;99407.47;;;18.33;41.60
26376;BME280;30544;42.196;24.336;2023-10-08T00:13:34;99401.66;;;18.25;41.57
26376;BME280;30544;42.196;24.336;2023-10-08T00:16:05;99396.88;;;18.25;41.64
26376;BME280;30544;42.196;24.336;2023-10-08T00:18:35;99407.31;;;18.20;41.91
26376;BME280;30544;42.196;24.336;2023-10-08T00:21:02;99403.13;;;18.17;42.07
26376;BME280;30544;42.196;24.336;2023-10-08T00:23:41;99403.38;;;18.21;42.16
26376;BME280;30544;42.196;24.336;2023-10-08T00:26:13;99397.25;;;18.14;42.47
26376;BME280;30544;42.196;24.336;2023-10-08T00:28:45;99399.00;;;18.04;42.91
26376;BME280;30544;42.196;24.336;2023-10-08T00:31:13;99399.25;;;18.08;43.20
26376;BME280;30544;42.196;24.336;2023-10-08T00:33:43;99406.34;;;18.00;42.79
26376;BME280;30544;42.196;24.336;2023-10-08T00:36:10;99403.84;;;17.99;43.24
26376;BME280;30544;42.196;24.336;2023-10-08T00:38:44;99398.25;;;17.94;42.88
26376;BME280;30544;42.196;24.336;2023-10-08T00:41:15;99403.00;;;17.93;42.66
26376;BME280;30544;42.196;24.336;2023-10-08T00:43:42;99407.19;;;17.96;42.73
26376;BME280;30544;42.196;24.336;2023-10-08T00:46:11;99395.97;;;17.96;42.54
26376;BME280;30544;42.196;24.336;2023-10-08T00:48:49;99406.16;;;17.87;42.67
26376;BME280;30544;42.196;24.336;2023-10-08T00:51:19;99402.28;;;17.83;42.45
26376;BME280;30544;42.196;24.336;2023-10-08T00:54:02;99400.56;;;17.87;42.44
26376;BME280;30544;42.196;24.336;2023-10-08T00:56:34;99390.50;;;17.81;42.23
26376;BME280;30544;42.196;24.336;2023-10-08T00:59:11;99394.72;;;17.78;42.33
26376;BME280;30544;42.196;24.336;2023-10-08T01:01:43;99378.16;;;17.77;42.21
26376;BME280;30544;42.196;24.336;2023-10-08T01:04:17;99379.81;;;17.83;42.30
26376;BME280;30544;42.196;24.336;2023-10-08T01:06:47;99381.78;;;17.82;42.30
26376;BME280;30544;42.196;24.336;2023-10-08T01:09:16;99376.44;;;17.86;42.59
26376;BME280;30544;42.196;24.336;2023-10-08T01:12:06;99380.66;;;17.83;42.12
26376;BME280;30544;42.196;24.336;2023-10-08T01:14:34;99374.47;;;17.86;42.26
26376;BME280;30544;42.196;24.336;2023-10-08T01:17:16;99370.56;;;17.82;42.19
26376;BME280;30544;42.196;24.336;2023-10-08T01:19:50;99372.84;;;17.75;42.67
26376;BME280;30544;42.196;24.336;2023-10-08T01:22:23;99372.59;;;17.71;42.26
26376;BME280;30544;42.196;24.336;2023-10-08T01:24:53;99366.16;;;17.66;42.80
26376;BME280;30544;42.196;24.336;2023-10-08T01:27:20;99373.75;;;17.60;42.26
26376;BME280;30544;42.196;24.336;2023-10-08T01:29:50;99372.06;;;17.64;42.35
26376;BME280;30544;42.196;24.336;2023-10-08T01:32:17;99372.09;;;17.59;42.13
26376;BME280;30544;42.196;24.336;2023-10-08T01:34:44;99365.34;;;17.60;41.97
26376;BME280;30544;42.196;24.336;2023-10-08T01:37:13;99360.84;;;17.64;41.60
26376;BME280;30544;42.196;24.336;2023-10-08T01:39:43;99363.38;;;17.66;41.76
26376;BME280;30544;42.196;24.336;2023-10-08T01:42:11;99354.13;;;17.65;41.61
26376;BME280;30544;42.196;24.336;2023-10-08T01:44:43;99353.00;;;17.61;41.97
26376;BME280;30544;42.196;24.336;2023-10-08T01:47:12;99356.63;;;17.67;41.82
26376;BME280;30544;42.196;24.336;2023-10-08T01:49:39;99350.78;;;17.58;42.09
26376;BME280;30544;42.196;24.336;2023-10-08T01:52:08;99344.28;;;17.63;42.05
26376;BME280;30544;42.196;24.336;2023-10-08T01:54:39;99349.41;;;17.56;42.36
26376;BME280;30544;42.196;24.336;2023-10-08T01:57:07;99347.97;;;17.58;42.23
26376;BME280;30544;42.196;24.336;2023-10-08T01:59:35;99354.47;;;17.54;42.42
26376;BME280;30544;42.196;24.336;2023-10-08T02:02:03;99361.25;;;17.48;42.71
26376;BME280;30544;42.196;24.336;2023-10-08T02:04:31;99357.63;;;17.42;43.94
26376;BME280;30544;42.196;24.336;2023-10-08T02:07:01;99353.16;;;17.36;43.66
26376;BME280;30544;42.196;24.336;2023-10-08T02:09:29;99354.81;;;17.42;43.47
26376;BME280;30544;42.196;24.336;2023-10-08T02:11:58;99356.25;;;17.34;43.68
26376;BME280;30544;42.196;24.336;2023-10-08T02:14:26;99361.28;;;17.37;43.44
26376;BME280;30544;42.196;24.336;2023-10-08T02:16:57;99363.28;;;17.32;44.06
26376;BME280;30544;42.196;24.336;2023-10-08T02:19:26;99351.84;;;17.23;44.11
26376;BME280;30544;42.196;24.336;2023-10-08T02:21:54;99357.16;;;17.25;43.81
26376;BME280;30544;42.196;24.336;2023-10-08T02:24:21;99348.22;;;17.18;44.29
26376;BME280;30544;42.196;24.336;2023-10-08T02:26:50;99352.97;;;17.22;43.98
26376;BME280;30544;42.196;24.336;2023-10-08T02:29:17;99349.63;;;17.20;43.76
26376;BME280;30544;42.196;24.336;2023-10-08T02:31:46;99353.56;;;17.14;44.50
26376;BME280;30544;42.196;24.336;2023-10-08T02:34:13;99341.78;;;17.12;44.50
26376;BME280;30544;42.196;24.336;2023-10-08T02:36:40;99351.09;;;17.02;45.12
26376;BME280;30544;42.196;24.336;2023-10-08T02:39:08;99347.72;;;17.05;44.99
26376;BME280;30544;42.196;24.336;2023-10-08T02:41:43;99341.31;;;16.95;44.90
26376;BME280;30544;42.196;24.336;2023-10-08T02:44:11;99350.84;;;16.94;45.21
26376;BME280;30544;42.196;24.336;2023-10-08T02:46:40;99349.47;;;16.86;45.53
26376;BME280;30544;42.196;24.336;2023-10-08T02:49:09;99341.94;;;16.81;45.68
26376;BME280;30544;42.196;24.336;2023-10-08T02:51:42;99344.47;;;16.83;45.81
26376;BME280;30544;42.196;24.336;2023-10-08T02:54:10;99351.47;;;16.80;45.35
26376;BME280;30544;42.196;24.336;2023-10-08T02:56:43;99347.56;;;16.81;45.47
26376;BME280;30544;42.196;24.336;2023-10-08T02:59:11;99346.16;;;16.74;45.72
26376;BME280;30544;42.196;24.336;2023-10-08T03:01:39;99343.66;;;16.72;46.00
26376;BME280;30544;42.196;24.336;2023-10-08T03:04:08;99336.38;;;16.71;45.64
26376;BME280;30544;42.196;24.336;2023-10-08T03:06:44;99347.00;;;16.74;45.82
26376;BME280;30544;42.196;24.336;2023-10-08T03:09:14;99338.88;;;16.73;45.54
26376;BME280;30544;42.196;24.336;2023-10-08T03:11:46;99336.06;;;16.63;45.76
26376;BME280;30544;42.196;24.336;2023-10-08T03:14:15;99335.81;;;16.64;45.76
26376;BME280;30544;42.196;24.336;2023-10-08T03:16:48;99337.78;;;16.59;45.21
26376;BME280;30544;42.196;24.336;2023-10-08T03:19:16;99328.81;;;16.57;45.47
26376;BME280;30544;42.196;24.336;2023-10-08T03:21:46;99333.28;;;16.63;44.83
26376;BME280;30544;42.196;24.336;2023-10-08T03:24:17;99330.47;;;16.63;44.63
26376;BME280;30544;42.196;24.336;2023-10-08T03:26:56;99327.41;;;16.64;44.39
26376;BME280;30544;42.196;24.336;2023-10-08T03:29:33;99331.91;;;16.70;45.01
26376;BME280;30544;42.196;24.336;2023-10-08T03:32:06;99334.44;;;16.67;44.79
26376;BME280;30544;42.196;24.336;2023-10-08T03:34:40;99340.28;;;16.65;44.75
26376;BME280;30544;42.196;24.336;2023-10-08T03:37:09;99332.16;;;16.74;44.30
26376;BME280;30544;42.196;24.336;2023-10-08T03:39:41;99329.94;;;16.71;44.79
26376;BME280;30544;42.196;24.336;2023-10-08T03:42:32;99330.47;;;16.83;44.75
26376;BME280;30544;42.196;24.336;2023-10-08T03:45:06;99315.88;;;16.86;44.39
26376;BME280;30544;42.196;24.336;2023-10-08T03:47:37;99327.63;;;16.88;44.17
26376;BME280;30544;42.196;24.336;2023-10-08T03:50:07;99323.69;;;16.89;44.87
26376;BME280;30544;42.196;24.336;2023-10-08T03:52:35;99315.63;;;16.82;44.63
26376;BME280;30544;42.196;24.336;2023-10-08T03:55:05;99323.16;;;16.87;44.33
26376;BME280;30544;42.196;24.336;2023-10-08T03:57:39;99324.03;;;16.72;44.68
26376;BME280;30544;42.196;24.336;2023-10-08T04:00:10;99322.63;;;16.80;44.77
26376;BME280;30544;42.196;24.336;2023-10-08T04:02:42;99327.09;;;16.76;45.10
26376;BME280;30544;42.196;24.336;2023-10-08T04:05:13;99322.63;;;16.75;45.30
26376;BME280;30544;42.196;24.336;2023-10-08T04:07:48;99326.84;;;16.72;45.10
26376;BME280;30544;42.196;24.336;2023-10-08T04:10:31;99323.22;;;16.67;45.50
26376;BME280;30544;42.196;24.336;2023-10-08T04:13:25;99337.50;;;16.55;45.38
26376;BME280;30544;42.196;24.336;2023-10-08T04:15:53;99336.09;;;16.58;45.96
26376;BME280;30544;42.196;24.336;2023-10-08T04:18:20;99339.72;;;16.58;45.06
26376;BME280;30544;42.196;24.336;2023-10-08T04:20:48;99337.78;;;16.59;45.45
26376;BME280;30544;42.196;24.336;2023-10-08T04:23:26;99327.13;;;16.61;45.35
26376;BME280;30544;42.196;24.336;2023-10-08T04:25:54;99326.59;;;16.53;45.24
26376;BME280;30544;42.196;24.336;2023-10-08T04:28:21;99326.03;;;16.57;45.09
26376;BME280;30544;42.196;24.336;2023-10-08T04:30:48;99322.09;;;16.58;45.39
26376;BME280;30544;42.196;24.336;2023-10-08T04:33:16;99321.53;;;16.55;45.24
26376;BME280;30544;42.196;24.336;2023-10-08T04:35:45;99317.59;;;16.62;45.21
26376;BME280;30544;42.196;24.336;2023-10-08T04:38:20;99323.53;;;16.50;45.63
26376;BME280;30544;42.196;24.336;2023-10-08T04:40:47;99326.03;;;16.51;45.06
26376;BME280;30544;42.196;24.336;2023-10-08T04:43:18;99322.13;;;16.52;45.68
26376;BME280;30544;42.196;24.336;2023-10-08T04:45:50;99325.19;;;16.56;45.22
26376;BME280;30544;42.196;24.336;2023-10-08T04:48:17;99334.41;;;16.57;45.31
26376;BME280;30544;42.196;24.336;2023-10-08T04:50:46;99343.38;;;16.59;45.10
26376;BME280;30544;42.196;24.336;2023-10-08T04:53:25;99343.94;;;16.66;45.22
26376;BME280;30544;42.196;24.336;2023-10-08T04:55:58;99342.53;;;16.58;45.28
26376;BME280;30544;42.196;24.336;2023-10-08T04:58:30;99345.91;;;16.70;45.12
26376;BME280;30544;42.196;24.336;2023-10-08T05:01:01;99346.44;;;16.62;44.98
26376;BME280;30544;42.196;24.336;2023-10-08T05:03:43;99337.22;;;16.67;44.87
26376;BME280;30544;42.196;24.336;2023-10-08T05:06:22;99343.38;;;16.69;45.29
26376;BME280;30544;42.196;24.336;2023-10-08T05:09:09;99333.84;;;16.70;44.77
26376;BME280;30544;42.196;24.336;2023-10-08T05:11:38;99336.09;;;16.73;45.11
26376;BME280;30544;42.196;24.336;2023-10-08T05:14:32;99322.34;;;16.76;45.39
26376;BME280;30544;42.196;24.336;2023-10-08T05:17:06;99335.50;;;16.81;45.31
26376;BME280;30544;42.196;24.336;2023-10-08T05:19:35;99325.97;;;16.77;44.71
26376;BME280;30544;42.196;24.336;2023-10-08T05:22:22;99325.69;;;16.78;45.12
26376;BME280;30544;42.196;24.336;2023-10-08T05:25:10;99326.28;;;16.80;44.49
26376;BME280;30544;42.196;24.336;2023-10-08T05:28:00;99315.03;;;16.86;44.69
26376;BME280;30544;42.196;24.336;2023-10-08T05:30:34;99309.69;;;16.89;44.20
26376;BME280;30544;42.196;24.336;2023-10-08T05:33:08;99303.50;;;16.92;44.30
26376;BME280;30544;42.196;24.336;2023-10-08T05:35:49;99316.09;;;16.95;43.96
26376;BME280;30544;42.196;24.336;2023-10-08T05:38:21;99318.59;;;17.01;44.48
26376;BME280;30544;42.196;24.336;2023-10-08T05:41:15;99307.94;;;17.03;44.28
26376;BME280;30544;42.196;24.336;2023-10-08T05:43:59;99310.72;;;17.08;44.06
26376;BME280;30544;42.196;24.336;2023-10-08T05:46:49;99319.66;;;17.10;43.75
26376;BME280;30544;42.196;24.336;2023-10-08T05:49:30;99315.44;;;17.18;43.54
26376;BME280;30544;42.196;24.336;2023-10-08T05:52:19;99312.06;;;17.21;43.04
26376;BME280;30544;42.196;24.336;2023-10-08T05:54:53;99315.06;;;17.30;43.49
26376;BME280;30544;42.196;24.336;2023-10-08T05:57:39;99320.66;;;17.35;43.95
26376;BME280;30544;42.196;24.336;2023-10-08T06:00:12;99321.75;;;17.39;42.95
26376;BME280;30544;42.196;24.336;2023-10-08T06:02:57;99320.03;;;17.43;43.02
26376;BME280;30544;42.196;24.336;2023-10-08T06:05:36;99313.28;;;17.49;42.79
26376;BME280;30544;42.196;24.336;2023-10-08T06:08:12;99317.19;;;17.53;42.92
26376;BME280;30544;42.196;24.336;2023-10-08T06:10:40;99320.47;;;17.60;42.40
26376;BME280;30544;42.196;24.336;2023-10-08T06:13:21;99323.81;;;17.67;42.10
26376;BME280;30544;42.196;24.336;2023-10-08T06:16:10;99313.66;;;17.77;42.63
26376;BME280;30544;42.196;24.336;2023-10-08T06:18:39;99308.88;;;17.82;42.70
26376;BME280;30544;42.196;24.336;2023-10-08T06:21:06;99304.88;;;17.88;42.20
26376;BME280;30544;42.196;24.336;2023-10-08T06:23:35;99314.63;;;17.96;42.12
26376;BME280;30544;42.196;24.336;2023-10-08T06:26:03;99309.50;;;18.03;41.88
26376;BME280;30544;42.196;24.336;2023-10-08T06:28:42;99307.19;;;18.10;41.71
26376;BME280;30544;42.196;24.336;2023-10-08T06:31:10;99307.69;;;18.17;41.65
26376;BME280;30544;42.196;24.336;2023-10-08T06:33:42;99313.25;;;18.22;41.16
26376;BME280;30544;42.196;24.336;2023-10-08T06:36:10;99316.53;;;18.29;41.54
26376;BME280;30544;42.196;24.336;2023-10-08T06:38:42;99320.41;;;18.39;41.43
26376;BME280;30544;42.196;24.336;2023-10-08T06:41:10;99317.53;;;18.44;41.12
26376;BME280;30544;42.196;24.336;2023-10-08T06:43:42;99323.03;;;18.54;41.12
26376;BME280;30544;42.196;24.336;2023-10-08T06:46:12;99321.25;;;18.63;40.91
26376;BME280;30544;42.196;24.336;2023-10-08T06:48:39;99313.88;;;18.72;40.60
26376;BME280;30544;42.196;24.336;2023-10-08T06:51:08;99309.00;;;18.78;40.65
26376;BME280;30544;42.196;24.336;2023-10-08T06:53:38;99317.63;;;18.86;40.70
26376;BME280;30544;42.196;24.336;2023-10-08T06:56:05;99307.69;;;18.94;40.11
26376;BME280;30544;42.196;24.336;2023-10-08T06:58:35;99307.25;;;19.06;39.09
26376;BME280;30544;42.196;24.336;2023-10-08T07:01:03;99309.66;;;19.17;39.03
26376;BME280;30544;42.196;24.336;2023-10-08T07:03:34;99315.41;;;19.26;39.48
26376;BME280;30544;42.196;24.336;2023-10-08T07:06:03;99303.50;;;19.34;39.33
26376;BME280;30544;42.196;24.336;2023-10-08T07:08:43;99304.16;;;19.45;39.26
26376;BME280;30544;42.196;24.336;2023-10-08T07:11:12;99308.28;;;19.52;38.64
26376;BME280;30544;42.196;24.336;2023-10-08T07:13:39;99302.22;;;19.64;38.89
26376;BME280;30544;42.196;24.336;2023-10-08T07:16:09;99302.38;;;19.73;39.26
26376;BME280;30544;42.196;24.336;2023-10-08T07:18:37;99307.28;;;19.81;39.07
26376;BME280;30544;42.196;24.336;2023-10-08T07:21:05;99297.31;;;19.89;38.39
26376;BME280;30544;42.196;24.336;2023-10-08T07:23:38;99302.47;;;20.00;38.33
26376;BME280;30544;42.196;24.336;2023-10-08T07:26:21;99305.09;;;20.10;38.17
26376;BME280;30544;42.196;24.336;2023-10-08T07:28:51;99297.63;;;20.20;38.28
26376;BME280;30544;42.196;24.336;2023-10-08T07:31:20;99309.00;;;20.28;38.75
26376;BME280;30544;42.196;24.336;2023-10-08T07:33:48;99290.88;;;20.34;38.29
26376;BME280;30544;42.196;24.336;2023-10-08T07:36:21;99297.25;;;20.40;38.17
26376;BME280;30544;42.196;24.336;2023-10-08T07:38:48;99294.88;;;20.47;38.16
26376;BME280;30544;42.196;24.336;2023-10-08T07:41:15;99285.19;;;20.53;37.49
26376;BME280;30544;42.196;24.336;2023-10-08T07:43:44;99285.81;;;20.64;36.75
26376;BME280;30544;42.196;24.336;2023-10-08T07:46:19;99279.47;;;20.72;36.86
26376;BME280;30544;42.196;24.336;2023-10-08T07:48:46;99273.91;;;20.81;36.60
26376;BME280;30544;42.196;24.336;2023-10-08T07:51:13;99270.38;;;20.89;36.51
26376;BME280;30544;42.196;24.336;2023-10-08T07:53:40;99268.16;;;20.99;35.80
26376;BME280;30544;42.196;24.336;2023-10-08T07:56:08;99270.75;;;21.10;35.70
26376;BME280;30544;42.196;24.336;2023-10-08T07:58:36;99269.72;;;21.19;35.33
26376;BME280;30544;42.196;24.336;2023-10-08T08:01:04;99263.34;;;21.27;35.41
26376;BME280;30544;42.196;24.336;2023-10-08T08:03:34;99262.91;;;21.34;34.69
26376;BME280;30544;42.196;24.336;2023-10-08T08:06:03;99247.72;;;21.44;34.27
26376;BME280;30544;42.196;24.336;2023-10-08T08:08:31;99248.84;;;21.56;34.21
26376;BME280;30544;42.196;24.336;2023-10-08T08:10:59;99249.53;;;21.62;34.59
26376;BME280;30544;42.196;24.336;2023-10-08T08:13:31;99254.94;;;21.72;33.40
26376;BME280;30544;42.196;24.336;2023-10-08T08:15:59;99244.84;;;21.80;33.97
26376;BME280;30544;42.196;24.336;2023-10-08T08:18:36;99231.00;;;21.92;32.90
26376;BME280;30544;42.196;24.336;2023-10-08T08:21:03;99230.19;;;22.00;33.32
26376;BME280;30544;42.196;24.336;2023-10-08T08:23:30;99230.13;;;22.05;34.13
26376;BME280;30544;42.196;24.336;2023-10-08T08:25:58;99226.81;;;22.12;33.99
26376;BME280;30544;42.196;24.336;2023-10-08T08:28:38;99215.59;;;22.20;33.46
26376;BME280;30544;42.196;24.336;2023-10-08T08:31:06;99212.13;;;22.32;33.61
26376;BME280;30544;42.196;24.336;2023-10-08T08:33:40;99206.53;;;22.41;32.82
26376;BME280;30544;42.196;24.336;2023-10-08T08:36:19;99207.09;;;22.51;32.17
26376;BME280;30544;42.196;24.336;2023-10-08T08:38:47;99197.47;;;22.61;31.66
26376;BME280;30544;42.196;24.336;2023-10-08T08:41:14;99198.66;;;22.69;31.34
26376;BME280;30544;42.196;24.336;2023-10-08T08:43:44;99201.66;;;22.81;31.33
26376;BME280;30544;42.196;24.336;2023-10-08T08:46:13;99197.41;;;22.92;30.86
26376;BME280;30544;42.196;24.336;2023-10-08T08:48:43;99185.28;;;23.09;31.36
26376;BME280;30544;42.196;24.336;2023-10-08T08:51:11;99185.09;;;23.14;31.29
26376;BME280;30544;42.196;24.336;2023-10-08T08:53:39;99185.63;;;23.25;31.43
26376;BME280;30544;42.196;24.336;2023-10-08T08:56:07;99184.63;;;23.29;31.59
26376;BME280;30544;42.196;24.336;2023-10-08T08:58:36;99172.81;;;23.36;31.59
26376;BME280;30544;42.196;24.336;2023-10-08T09:01:06;99172.63;;;23.50;30.81
26376;BME280;30544;42.196;24.336;2023-10-08T09:03:35;99166.88;;;24.01;30.31
26376;BME280;30544;42.196;24.336;2023-10-08T09:06:04;99161.00;;;24.15;29.24
26376;BME280;30544;42.196;24.336;2023-10-08T09:08:34;99161.97;;;24.37;29.03
26376;BME280;30544;42.196;24.336;2023-10-08T09:11:02;99153.03;;;24.55;28.32
26376;BME280;30544;42.196;24.336;2023-10-08T09:13:30;99154.28;;;24.67;28.73
26376;BME280;30544;42.196;24.336;2023-10-08T09:16:02;99151.59;;;25.00;27.79
26376;BME280;30544;42.196;24.336;2023-10-08T09:18:30;99152.44;;;25.21;28.27
26376;BME280;30544;42.196;24.336;2023-10-08T09:21:09;99139.13;;;25.34;28.15
26376;BME280;30544;42.196;24.336;2023-10-08T09:23:39;99145.44;;;25.39;28.38
26376;BME280;30544;42.196;24.336;2023-10-08T09:26:09;99140.94;;;25.38;28.29
26376;BME280;30544;42.196;24.336;2023-10-08T09:28:39;99150.97;;;25.57;28.03
26376;BME280;30544;42.196;24.336;2023-10-08T09:31:10;99132.94;;;25.73;27.45
26376;BME280;30544;42.196;24.336;2023-10-08T09:33:37;99140.22;;;25.95;27.81
26376;BME280;30544;42.196;24.336;2023-10-08T09:36:05;99145.22;;;26.11;27.32
26376;BME280;30544;42.196;24.336;2023-10-08T09:38:34;99135.75;;;26.19;27.38
26376;BME280;30544;42.196;24.336;2023-10-08T09:41:02;99139.31;;;26.28;26.99
26376;BME280;30544;42.196;24.336;2023-10-08T09:43:29;99125.97;;;26.41;27.25
26376;BME280;30544;42.196;24.336;2023-10-08T09:46:07;99118.75;;;26.55;27.26
26376;BME280;30544;42.196;24.336;2023-10-08T09:48:37;99130.56;;;26.69;27.58
26376;BME280;30544;42.196;24.336;2023-10-08T09:51:05;99121.56;;;26.80;26.94
26376;BME280;30544;42.196;24.336;2023-10-08T09:53:43;99110.28;;;26.83;27.46
26376;BME280;30544;42.196;24.336;2023-10-08T09:56:14;99113.22;;;26.99;27.37
26376;BME280;30544;42.196;24.336;2023-10-08T09:58:42;99114.78;;;27.09;27.60
26376;BME280;30544;42.196;24.336;2023-10-08T10:01:10;99114.63;;;27.17;27.47
26376;BME280;30544;42.196;24.336;2023-10-08T10:03:37;99112.84;;;27.25;26.54
26376;BME280;30544;42.196;24.336;2023-10-08T10:06:12;99105.06;;;27.38;26.43
26376;BME280;30544;42.196;24.336;2023-10-08T10:08:42;99109.78;;;27.46;26.10
26376;BME280;30544;42.196;24.336;2023-10-08T10:11:08;99094.72;;;27.45;25.92
26376;BME280;30544;42.196;24.336;2023-10-08T10:13:39;99103.78;;;27.63;25.70
26376;BME280;30544;42.196;24.336;2023-10-08T10:16:06;99087.63;;;27.67;25.48
26376;BME280;30544;42.196;24.336;2023-10-08T10:18:34;99091.88;;;27.73;25.55
26376;BME280;30544;42.196;24.336;2023-10-08T10:21:24;99084.63;;;27.76;26.17
26376;BME280;30544;42.196;24.336;2023-10-08T10:23:54;99079.00;;;27.79;25.99
26376;BME280;30544;42.196;24.336;2023-10-08T10:26:23;99085.59;;;27.68;25.64
26376;BME280;30544;42.196;24.336;2023-10-08T10:29:21;99074.66;;;27.70;25.43
26376;BME280;30544;42.196;24.336;2023-10-08T10:31:49;99064.38;;;27.65;25.79
26376;BME280;30544;42.196;24.336;2023-10-08T10:34:20;99070.31;;;27.60;25.50
26376;BME280;30544;42.196;24.336;2023-10-08T10:36:49;99063.91;;;27.63;26.71
26376;BME280;30544;42.196;24.336;2023-10-08T10:39:23;99071.16;;;27.61;26.62
26376;BME280;30544;42.196;24.336;2023-10-08T10:41:54;99054.44;;;27.59;26.76
26376;BME280;30544;42.196;24.336;2023-10-08T10:44:23;99066.56;;;27.56;26.54
26376;BME280;30544;42.196;24.336;2023-10-08T10:46:50;99054.63;;;27.66;27.30
26376;BME280;30544;42.196;24.336;2023-10-08T10:49:17;99054.47;;;27.75;26.79
26376;BME280;30544;42.196;24.336;2023-10-08T10:51:47;99051.06;;;27.85;26.14
26376;BME280;30544;42.196;24.336;2023-10-08T10:54:16;99044.75;;;27.92;26.28
26376;BME280;30544;42.196;24.336;2023-10-08T10:56:47;99042.91;;;27.99;26.30
26376;BME280;30544;42.196;24.336;2023-10-08T10:59:28;99049.63;;;28.07;26.02
26376;BME280;30544;42.196;24.336;2023-10-08T11:01:54;99025.34;;;28.13;26.32
26376;BME280;30544;42.196;24.336;2023-10-08T11:04:33;99031.94;;;28.17;26.91
26376;BME280;30544;42.196;24.336;2023-10-08T11:07:11;99041.25;;;28.14;26.49
26376;BME280;30544;42.196;24.336;2023-10-08T11:09:38;99027.47;;;28.32;26.93
26376;BME280;30544;42.196;24.336;2023-10-08T11:12:13;99036.66;;;28.25;26.35
26376;BME280;30544;42.196;24.336;2023-10-08T11:14:48;99012.00;;;28.33;26.31
26376;BME280;30544;42.196;24.336;2023-10-08T11:17:19;99008.22;;;28.44;26.05
26376;BME280;30544;42.196;24.336;2023-10-08T11:19:49;99020.34;;;28.57;26.23
26376;BME280;30544;42.196;24.336;2023-10-08T11:22:16;99025.09;;;28.53;25.97
26376;BME280;30544;42.196;24.336;2023-10-08T11:24:44;99005.81;;;28.46;26.16
26376;BME280;30544;42.196;24.336;2023-10-08T11:27:16;99008.94;;;28.57;26.01
26376;BME280;30544;42.196;24.336;2023-10-08T11:29:55;99005.50;;;28.52;26.28
26376;BME280;30544;42.196;24.336;2023-10-08T11:32:24;98989.47;;;28.63;26.04
26376;BME280;30544;42.196;24.336;2023-10-08T11:34:55;98997.59;;;28.61;25.58
26376;BME280;30544;42.196;24.336;2023-10-08T11:37:28;98985.34;;;28.60;25.96
26376;BME280;30544;42.196;24.336;2023-10-08T11:39:55;98972.25;;;28.75;26.10
26376;BME280;30544;42.196;24.336;2023-10-08T11:42:25;98996.78;;;28.80;25.94
26376;BME280;30544;42.196;24.336;2023-10-08T11:45:10;98990.41;;;28.86;25.32
26376;BME280;30544;42.196;24.336;2023-10-08T11:47:50;98984.53;;;28.79;26.00
26376;BME280;30544;42.196;24.336;2023-10-08T11:50:23;98970.28;;;28.79;25.42
26376;BME280;30544;42.196;24.336;2023-10-08T11:52:57;98975.44;;;28.89;25.71
26376;BME280;30544;42.196;24.336;2023-10-08T11:55:27;98962.13;;;28.97;25.19
26376;BME280;30544;42.196;24.336;2023-10-08T11:57:56;98973.47;;;28.93;25.28
26376;BME280;30544;42.196;24.336;2023-10-08T12:00:23;98963.31;;;28.96;26.01
26376;BME280;30544;42.196;24.336;2023-10-08T12:02:52;98967.59;;;28.86;25.67
26376;BME280;30544;42.196;24.336;2023-10-08T12:05:20;98968.50;;;28.90;25.22
26376;BME280;30544;42.196;24.336;2023-10-08T12:07:49;98959.13;;;28.90;24.82
26376;BME280;30544;42.196;24.336;2023-10-08T12:10:17;98965.66;;;28.90;25.10
26376;BME280;30544;42.196;24.336;2023-10-08T12:12:48;98956.47;;;29.00;24.67
26376;BME280;30544;42.196;24.336;2023-10-08T12:15:16;98952.41;;;29.01;24.81
26376;BME280;30544;42.196;24.336;2023-10-08T12:17:46;98942.22;;;29.00;24.83
26376;BME280;30544;42.196;24.336;2023-10-08T12:20:34;98944.19;;;28.96;24.69
26376;BME280;30544;42.196;24.336;2023-10-08T12:23:02;98931.88;;;28.92;25.24
26376;BME280;30544;42.196;24.336;2023-10-08T12:25:29;98949.28;;;29.07;24.72
26376;BME280;30544;42.196;24.336;2023-10-08T12:27:58;98928.09;;;29.08;24.85
26376;BME280;30544;42.196;24.336;2023-10-08T12:30:29;98935.53;;;29.12;25.25
26376;BME280;30544;42.196;24.336;2023-10-08T12:32:58;98938.75;;;29.11;25.49
26376;BME280;30544;42.196;24.336;2023-10-08T12:35:26;98934.25;;;29.10;25.37
26376;BME280;30544;42.196;24.336;2023-10-08T12:37:55;98938.59;;;29.23;25.00
26376;BME280;30544;42.196;24.336;2023-10-08T12:40:22;98933.94;;;29.15;25.13
26376;BME280;30544;42.196;24.336;2023-10-08T12:42:50;98932.50;;;29.24;25.08
26376;BME280;30544;42.196;24.336;2023-10-08T12:45:17;98931.28;;;29.25;24.80
26376;BME280;30544;42.196;24.336;2023-10-08T12:47:48;98930.84;;;29.23;24.83
26376;BME280;30544;42.196;24.336;2023-10-08T12:50:16;98924.31;;;29.23;25.16
26376;BME280;30544;42.196;24.336;2023-10-08T12:52:49;98928.44;;;29.25;25.37
26376;BME280;30544;42.196;24.336;2023-10-08T12:55:21;98942.59;;;29.41;25.58
26376;BME280;30544;42.196;24.336;2023-10-08T12:57:52;98929.53;;;29.40;25.08
26376;BME280;30544;42.196;24.336;2023-10-08T13:00:22;98925.44;;;29.60;25.06
26376;BME280;30544;42.196;24.336;2023-10-08T13:02:51;98931.75;;;29.50;25.18
26376;BME280;30544;42.196;24.336;2023-10-08T13:05:21;98923.34;;;29.84;25.32
26376;BME280;30544;42.196;24.336;2023-10-08T13:07:54;98940.34;;;29.73;24.92
26376;BME280;30544;42.196;24.336;2023-10-08T13:10:22;98937.22;;;29.82;24.97
26376;BME280;30544;42.196;24.336;2023-10-08T13:12:49;98912.81;;;29.88;24.84